sensor_id;sensor_type;location;lat;lon;timestamp;pressure;altitude;pressure_sealevel;temperature;humidity
47670;BME280;33408;52.062;11.722;2023-04-12T00:00:23;100792.94;;;3.86;100.00
47670;BME280;33408;52.062;11.722;2023-04-12T00:02:50;100797.34;;;3.95;100.00
47670;BME280;33408;52.062;11.722;2023-04-12T00:05:18;100798.16;;;3.94;100.00
47670;BME280;33408;52.062;11.722;2023-04-12T00:07:47;100798.13;;;3.91;100.00
47670;BME280;33408;52.062;11.722;2023-04-12T00:10:18;100787.03;;;3.92;100.00
47670;BME280;33408;52.062;11.722;2023-04-12T00:12:45;100782.75;;;3.91;100.00
47670;BME280;33408;52.062;11.722;2023-04-12T00:15:12;100786.97;;;3.86;100.00
47670;BME280;33408;52.062;11.722;2023-04-12T00:17:38;100783.53;;;3.82;100.00
47670;BME280;33408;52.062;11.722;2023-04-12T00:20:06;100774.00;;;3.70;100.00
47670;BME280;33408;52.062;11.722;2023-04-12T00:22:36;100771.41;;;3.67;100.00
47670;BME280;33408;52.062;11.722;2023-04-12T00:25:04;100765.31;;;3.59;100.00
47670;BME280;33408;52.062;11.722;2023-04-12T00:27:32;100758.56;;;3.62;100.00
47670;BME280;33408;52.062;11.722;2023-04-12T00:30:01;100759.38;;;3.61;100.00
47670;BME280;33408;52.062;11.722;2023-04-12T00:32:28;100763.69;;;3.62;100.00
47670;BME280;33408;52.062;11.722;2023-04-12T00:34:55;100757.66;;;3.62;100.00
47670;BME280;33408;52.062;11.722;2023-04-12T00:37:21;100753.47;;;3.69;100.00
47670;BME280;33408;52.062;11.722;2023-04-12T00:39:48;100738.75;;;3.51;100.00
47670;BME280;33408;52.062;11.722;2023-04-12T00:42:15;100743.19;;;3.65;100.00
47670;BME280;33408;52.062;11.722;2023-04-12T00:44:43;100738.72;;;3.47;100.00
47670;BME280;33408;52.062;11.722;2023-04-12T00:47:10;100726.81;;;3.51;100.00
47670;BME280;33408;52.062;11.722;2023-04-12T00:49:39;100724.13;;;3.40;100.00
47670;BME280;33408;52.062;11.722;2023-04-12T00:52:07;100726.56;;;3.28;100.00
47670;BME280;33408;52.062;11.722;2023-04-12T00:54:34;100725.88;;;3.44;100.00
47670;BME280;33408;52.062;11.722;2023-04-12T00:57:02;100716.31;;;3.29;100.00
47670;BME280;33408;52.062;11.722;2023-04-12T00:59:29;100722.41;;;3.41;100.00
47670;BME280;33408;52.062;11.722;2023-04-12T01:01:58;100724.19;;;3.45;100.00
47670;BME280;33408;52.062;11.722;2023-04-12T01:04:25;100718.84;;;3.26;100.00
47670;BME280;33408;52.062;11.722;2023-04-12T01:07:08;100716.34;;;3.31;100.00
47670;BME280;33408;52.062;11.722;2023-04-12T01:09:48;100718.00;;;3.27;100.00
47670;BME280;33408;52.062;11.722;2023-04-12T01:12:25;100717.16;;;3.27;100.00
47670;BME280;33408;52.062;11.722;2023-04-12T01:15:04;100701.84;;;3.30;100.00
47670;BME280;33408;52.062;11.722;2023-04-12T01:17:37;100698.34;;;3.25;100.00
47670;BME280;33408;52.062;11.722;2023-04-12T01:20:13;100694.72;;;3.06;100.00
47670;BME280;33408;52.062;11.722;2023-04-12T01:22:55;100683.59;;;3.04;100.00
47670;BME280;33408;52.062;11.722;2023-04-12T01:25:44;100680.16;;;3.02;100.00
47670;BME280;33408;52.062;11.722;2023-04-12T01:28:21;100679.41;;;3.12;100.00
47670;BME280;33408;52.062;11.722;2023-04-12T01:30:49;100676.91;;;3.18;100.00
47670;BME280;33408;52.062;11.722;2023-04-12T01:33:17;100674.41;;;3.21;100.00
47670;BME280;33408;52.062;11.722;2023-04-12T01:35:45;100670.09;;;3.17;100.00
47670;BME280;33408;52.062;11.722;2023-04-12T01:38:12;100670.16;;;3.26;100.00
47670;BME280;33408;52.062;11.722;2023-04-12T01:40:39;100672.72;;;3.26;100.00
47670;BME280;33408;52.062;11.722;2023-04-12T01:43:07;100666.59;;;3.12;100.00
47670;BME280;33408;52.062;11.722;2023-04-12T01:45:35;100666.28;;;2.84;100.00
47670;BME280;33408;52.062;11.722;2023-04-12T01:48:04;100667.00;;;2.71;100.00
47670;BME280;33408;52.062;11.722;2023-04-12T01:50:37;100666.00;;;2.61;100.00
47670;BME280;33408;52.062;11.722;2023-04-12T01:53:09;100662.53;;;2.58;100.00
47670;BME280;33408;52.062;11.722;2023-04-12T01:55:38;100661.69;;;2.59;100.00
47670;BME280;33408;52.062;11.722;2023-04-12T01:58:06;100660.84;;;2.57;100.00
47670;BME280;33408;52.062;11.722;2023-04-12T02:00:36;100659.03;;;2.51;100.00
47670;BME280;33408;52.062;11.722;2023-04-12T02:03:04;100656.97;;;2.24;100.00
47670;BME280;33408;52.062;11.722;2023-04-12T02:05:31;100654.66;;;2.42;100.00
47670;BME280;33408;52.062;11.722;2023-04-12T02:08:01;100640.31;;;2.53;100.00
47670;BME280;33408;52.062;11.722;2023-04-12T02:10:28;100643.94;;;2.71;100.00
47670;BME280;33408;52.062;11.722;2023-04-12T02:12:57;100647.44;;;2.76;100.00
47670;BME280;33408;52.062;11.722;2023-04-12T02:15:24;100634.41;;;2.61;100.00
47670;BME280;33408;52.062;11.722;2023-04-12T02:17:52;100636.28;;;2.71;100.00
47670;BME280;33408;52.062;11.722;2023-04-12T02:20:19;100631.19;;;2.74;100.00
47670;BME280;33408;52.062;11.722;2023-04-12T02:22:47;100621.06;;;2.85;100.00
47670;BME280;33408;52.062;11.722;2023-04-12T02:25:14;100615.06;;;2.83;100.00
47670;BME280;33408;52.062;11.722;2023-04-12T02:27:42;100614.97;;;2.75;100.00
47670;BME280;33408;52.062;11.722;2023-04-12T02:30:09;100616.06;;;2.96;100.00
47670;BME280;33408;52.062;11.722;2023-04-12T02:32:36;100617.63;;;2.83;100.00
47670;BME280;33408;52.062;11.722;2023-04-12T02:35:10;100606.63;;;2.88;100.00
47670;BME280;33408;52.062;11.722;2023-04-12T02:37:38;100605.09;;;3.04;100.00
47670;BME280;33408;52.062;11.722;2023-04-12T02:40:05;100595.63;;;2.99;100.00
47670;BME280;33408;52.062;11.722;2023-04-12T02:42:34;100584.53;;;3.00;100.00
47670;BME280;33408;52.062;11.722;2023-04-12T02:45:01;100588.84;;;3.05;100.00
47670;BME280;33408;52.062;11.722;2023-04-12T02:47:28;100578.53;;;2.99;100.00
47670;BME280;33408;52.062;11.722;2023-04-12T02:49:55;100571.56;;;2.83;100.00
47670;BME280;33408;52.062;11.722;2023-04-12T02:52:23;100583.66;;;2.99;100.00
47670;BME280;33408;52.062;11.722;2023-04-12T02:54:50;100569.81;;;2.82;100.00
47670;BME280;33408;52.062;11.722;2023-04-12T02:57:16;100565.66;;;2.88;100.00
47670;BME280;33408;52.062;11.722;2023-04-12T02:59:45;100563.03;;;2.82;100.00
47670;BME280;33408;52.062;11.722;2023-04-12T03:02:11;100565.66;;;2.88;100.00
47670;BME280;33408;52.062;11.722;2023-04-12T03:04:38;100560.59;;;2.98;100.00
47670;BME280;33408;52.062;11.722;2023-04-12T03:07:05;100557.97;;;2.87;100.00
47670;BME280;33408;52.062;11.722;2023-04-12T03:09:33;100556.22;;;2.84;100.00
47670;BME280;33408;52.062;11.722;2023-04-12T03:12:03;100541.84;;;3.00;100.00
47670;BME280;33408;52.062;11.722;2023-04-12T03:14:30;100536.75;;;3.02;100.00
47670;BME280;33408;52.062;11.722;2023-04-12T03:16:56;100527.34;;;3.02;100.00
47670;BME280;33408;52.062;11.722;2023-04-12T03:19:23;100521.53;;;3.17;100.00
47670;BME280;33408;52.062;11.722;2023-04-12T03:21:50;100519.03;;;3.26;100.00
47670;BME280;33408;52.062;11.722;2023-04-12T03:24:16;100529.31;;;3.29;100.00
47670;BME280;33408;52.062;11.722;2023-04-12T03:26:44;100518.16;;;3.24;100.00
47670;BME280;33408;52.062;11.722;2023-04-12T03:29:11;100515.56;;;3.21;100.00
47670;BME280;33408;52.062;11.722;2023-04-12T03:31:37;100511.31;;;3.23;100.00
47670;BME280;33408;52.062;11.722;2023-04-12T03:34:04;100517.38;;;3.30;100.00
47670;BME280;33408;52.062;11.722;2023-04-12T03:36:31;100513.06;;;3.27;100.00
47670;BME280;33408;52.062;11.722;2023-04-12T03:38:57;100507.84;;;3.17;100.00
47670;BME280;33408;52.062;11.722;2023-04-12T03:41:24;100503.56;;;3.13;100.00
47670;BME280;33408;52.062;11.722;2023-04-12T03:43:52;100502.66;;;3.06;100.00
47670;BME280;33408;52.062;11.722;2023-04-12T03:46:19;100509.50;;;3.10;100.00
47670;BME280;33408;52.062;11.722;2023-04-12T03:48:45;100496.63;;;3.02;100.00
47670;BME280;33408;52.062;11.722;2023-04-12T03:51:12;100495.91;;;3.14;100.00
47670;BME280;33408;52.062;11.722;2023-04-12T03:53:40;100484.03;;;3.27;100.00
47670;BME280;33408;52.062;11.722;2023-04-12T03:56:07;100482.19;;;3.12;100.00
47670;BME280;33408;52.062;11.722;2023-04-12T03:58:34;100480.63;;;3.28;100.00
47670;BME280;33408;52.062;11.722;2023-04-12T04:01:02;100482.19;;;3.12;100.00
47670;BME280;33408;52.062;11.722;2023-04-12T04:03:30;100469.44;;;3.17;100.00
47670;BME280;33408;52.062;11.722;2023-04-12T04:05:59;100475.34;;;3.06;100.00
47670;BME280;33408;52.062;11.722;2023-04-12T04:08:25;100461.00;;;3.32;100.00
47670;BME280;33408;52.062;11.722;2023-04-12T04:10:52;100460.97;;;3.25;100.00
47670;BME280;33408;52.062;11.722;2023-04-12T04:13:19;100457.50;;;3.20;100.00
47670;BME280;33408;52.062;11.722;2023-04-12T04:15:49;100453.25;;;3.22;100.00
47670;BME280;33408;52.062;11.722;2023-04-12T04:18:17;100457.63;;;3.37;100.00
47670;BME280;33408;52.062;11.722;2023-04-12T04:20:44;100450.81;;;3.41;100.00
47670;BME280;33408;52.062;11.722;2023-04-12T04:23:10;100452.38;;;3.17;100.00
47670;BME280;33408;52.062;11.722;2023-04-12T04:25:37;100447.34;;;3.34;100.00
47670;BME280;33408;52.062;11.722;2023-04-12T04:28:05;100441.41;;;3.35;100.00
47670;BME280;33408;52.062;11.722;2023-04-12T04:30:32;100437.94;;;3.32;100.00
47670;BME280;33408;52.062;11.722;2023-04-12T04:33:03;100430.25;;;3.33;100.00
47670;BME280;33408;52.062;11.722;2023-04-12T04:35:31;100427.69;;;3.27;100.00
47670;BME280;33408;52.062;11.722;2023-04-12T04:37:58;100422.56;;;3.25;100.00
47670;BME280;33408;52.062;11.722;2023-04-12T04:40:24;100425.22;;;3.45;100.00
47670;BME280;33408;52.062;11.722;2023-04-12T04:42:51;100419.25;;;3.48;100.00
47670;BME280;33408;52.062;11.722;2023-04-12T04:45:21;100409.88;;;3.52;100.00
47670;BME280;33408;52.062;11.722;2023-04-12T04:47:50;100403.94;;;3.60;100.00
47670;BME280;33408;52.062;11.722;2023-04-12T04:50:17;100404.81;;;3.70;100.00
47670;BME280;33408;52.062;11.722;2023-04-12T04:52:47;100402.25;;;3.62;100.00
47670;BME280;33408;52.062;11.722;2023-04-12T04:55:14;100404.09;;;3.91;100.00
47670;BME280;33408;52.062;11.722;2023-04-12T04:57:41;100399.81;;;4.04;100.00
47670;BME280;33408;52.062;11.722;2023-04-12T05:00:09;100399.81;;;3.96;100.00
47670;BME280;33408;52.062;11.722;2023-04-12T05:02:37;100388.69;;;3.94;100.00
47670;BME280;33408;52.062;11.722;2023-04-12T05:05:07;100386.16;;;4.10;100.00
47670;BME280;33408;52.062;11.722;2023-04-12T05:07:34;100384.44;;;4.01;100.00
47670;BME280;33408;52.062;11.722;2023-04-12T05:10:03;100381.88;;;4.07;100.00
47670;BME280;33408;52.062;11.722;2023-04-12T05:12:30;100367.41;;;4.42;100.00
47670;BME280;33408;52.062;11.722;2023-04-12T05:14:57;100365.69;;;4.22;100.00
47670;BME280;33408;52.062;11.722;2023-04-12T05:17:23;100361.41;;;4.27;100.00
47670;BME280;33408;52.062;11.722;2023-04-12T05:19:50;100359.69;;;4.15;100.00
47670;BME280;33408;52.062;11.722;2023-04-12T05:22:17;100361.41;;;4.29;100.00
47670;BME280;33408;52.062;11.722;2023-04-12T05:24:44;100350.31;;;4.28;100.00
47670;BME280;33408;52.062;11.722;2023-04-12T05:27:13;100342.59;;;4.53;100.00
47670;BME280;33408;52.062;11.722;2023-04-12T05:29:40;100336.56;;;4.92;100.00
47670;BME280;33408;52.062;11.722;2023-04-12T05:32:07;100338.22;;;5.26;100.00
47670;BME280;33408;52.062;11.722;2023-04-12T05:34:34;100335.34;;;5.92;100.00
47670;BME280;33408;52.062;11.722;2023-04-12T05:37:01;100332.50;;;6.38;100.00
47670;BME280;33408;52.062;11.722;2023-04-12T05:39:28;100328.94;;;6.55;100.00
47670;BME280;33408;52.062;11.722;2023-04-12T05:41:55;100324.50;;;6.69;100.00
47670;BME280;33408;52.062;11.722;2023-04-12T05:44:23;100317.38;;;6.98;100.00
47670;BME280;33408;52.062;11.722;2023-04-12T05:46:49;100313.16;;;6.90;100.00
47670;BME280;33408;52.062;11.722;2023-04-12T05:49:16;100309.84;;;6.74;100.00
47670;BME280;33408;52.062;11.722;2023-04-12T05:51:42;100310.84;;;6.61;100.00
47670;BME280;33408;52.062;11.722;2023-04-12T05:54:09;100311.81;;;6.51;100.00
47670;BME280;33408;52.062;11.722;2023-04-12T05:56:36;100305.09;;;6.31;100.00
47670;BME280;33408;52.062;11.722;2023-04-12T05:59:02;100307.91;;;5.99;100.00
47670;BME280;33408;52.062;11.722;2023-04-12T06:01:33;100303.44;;;6.24;100.00
47670;BME280;33408;52.062;11.722;2023-04-12T06:03:59;100302.59;;;6.24;100.00
47670;BME280;33408;52.062;11.722;2023-04-12T06:06:27;100298.44;;;6.02;100.00
47670;BME280;33408;52.062;11.722;2023-04-12T06:08:54;100304.84;;;6.61;100.00
47670;BME280;33408;52.062;11.722;2023-04-12T06:11:22;100309.84;;;6.76;100.00
47670;BME280;33408;52.062;11.722;2023-04-12T06:13:49;100310.25;;;7.21;100.00
47670;BME280;33408;52.062;11.722;2023-04-12T06:16:15;100295.84;;;7.75;100.00
47670;BME280;33408;52.062;11.722;2023-04-12T06:18:43;100284.59;;;8.33;100.00
47670;BME280;33408;52.062;11.722;2023-04-12T06:21:10;100279.19;;;7.94;100.00
47670;BME280;33408;52.062;11.722;2023-04-12T06:23:36;100266.28;;;7.96;100.00
47670;BME280;33408;52.062;11.722;2023-04-12T06:26:04;100265.31;;;8.01;100.00
47670;BME280;33408;52.062;11.722;2023-04-12T06:28:30;100260.47;;;8.36;100.00
47670;BME280;33408;52.062;11.722;2023-04-12T06:30:57;100259.03;;;8.19;100.00
47670;BME280;33408;52.062;11.722;2023-04-12T06:33:23;100256.00;;;7.93;100.00
47670;BME280;33408;52.062;11.722;2023-04-12T06:35:51;100238.38;;;7.63;100.00
47670;BME280;33408;52.062;11.722;2023-04-12T06:38:18;100240.22;;;7.54;100.00
47670;BME280;33408;52.062;11.722;2023-04-12T06:40:46;100242.41;;;7.81;100.00
47670;BME280;33408;52.062;11.722;2023-04-12T06:43:13;100243.56;;;8.18;100.00
47670;BME280;33408;52.062;11.722;2023-04-12T06:45:40;100238.34;;;7.66;100.00
47670;BME280;33408;52.062;11.722;2023-04-12T06:48:07;100242.44;;;7.80;100.00
47670;BME280;33408;52.062;11.722;2023-04-12T06:50:36;100230.31;;;7.85;100.00
47670;BME280;33408;52.062;11.722;2023-04-12T06:53:03;100227.63;;;7.91;100.00
47670;BME280;33408;52.062;11.722;2023-04-12T06:55:30;100227.06;;;7.71;100.00
47670;BME280;33408;52.062;11.722;2023-04-12T06:57:57;100225.22;;;7.79;100.00
47670;BME280;33408;52.062;11.722;2023-04-12T07:00:24;100226.25;;;8.25;100.00
47670;BME280;33408;52.062;11.722;2023-04-12T07:02:50;100217.75;;;8.18;100.00
47670;BME280;33408;52.062;11.722;2023-04-12T07:05:17;100207.25;;;8.27;100.00
47670;BME280;33408;52.062;11.722;2023-04-12T07:07:43;100206.97;;;8.46;100.00
47670;BME280;33408;52.062;11.722;2023-04-12T07:10:12;100196.38;;;8.58;100.00
47670;BME280;33408;52.062;11.722;2023-04-12T07:12:38;100187.06;;;8.94;100.00
47670;BME280;33408;52.062;11.722;2023-04-12T07:15:07;100188.50;;;8.64;100.00
47670;BME280;33408;52.062;11.722;2023-04-12T07:17:33;100184.81;;;8.79;100.00
47670;BME280;33408;52.062;11.722;2023-04-12T07:20:00;100176.78;;;8.91;100.00
47670;BME280;33408;52.062;11.722;2023-04-12T07:22:27;100179.63;;;8.32;100.00
47670;BME280;33408;52.062;11.722;2023-04-12T07:24:54;100174.56;;;8.74;100.00
47670;BME280;33408;52.062;11.722;2023-04-12T07:27:22;100169.38;;;8.74;100.00
47670;BME280;33408;52.062;11.722;2023-04-12T07:29:50;100168.69;;;9.08;100.00
47670;BME280;33408;52.062;11.722;2023-04-12T07:32:17;100166.03;;;9.11;100.00
47670;BME280;33408;52.062;11.722;2023-04-12T07:34:43;100150.16;;;9.27;100.00
47670;BME280;33408;52.062;11.722;2023-04-12T07:37:10;100147.22;;;9.44;100.00
47670;BME280;33408;52.062;11.722;2023-04-12T07:39:37;100138.78;;;9.36;100.00
47670;BME280;33408;52.062;11.722;2023-04-12T07:42:05;100139.41;;;9.45;100.00
47670;BME280;33408;52.062;11.722;2023-04-12T07:44:33;100133.38;;;9.81;100.00
47670;BME280;33408;52.062;11.722;2023-04-12T07:47:00;100127.41;;;9.79;100.00
47670;BME280;33408;52.062;11.722;2023-04-12T07:49:26;100150.41;;;9.90;100.00
47670;BME280;33408;52.062;11.722;2023-04-12T07:51:53;100136.75;;;10.17;100.00
47670;BME280;33408;52.062;11.722;2023-04-12T07:54:19;100122.88;;;10.20;100.00
47670;BME280;33408;52.062;11.722;2023-04-12T07:56:56;100123.34;;;10.03;100.00
47670;BME280;33408;52.062;11.722;2023-04-12T07:59:23;100121.88;;;10.26;100.00
47670;BME280;33408;52.062;11.722;2023-04-12T08:01:51;100123.59;;;10.25;100.00
47670;BME280;33408;52.062;11.722;2023-04-12T08:04:17;100126.03;;;10.33;100.00
47670;BME280;33408;52.062;11.722;2023-04-12T08:06:44;100121.84;;;10.27;100.00
47670;BME280;33408;52.062;11.722;2023-04-12T08:09:11;100111.84;;;10.13;100.00
47670;BME280;33408;52.062;11.722;2023-04-12T08:11:37;100108.94;;;10.57;100.00
47670;BME280;33408;52.062;11.722;2023-04-12T08:14:04;100105.78;;;10.77;100.00
47670;BME280;33408;52.062;11.722;2023-04-12T08:16:30;100099.97;;;10.69;100.00
47670;BME280;33408;52.062;11.722;2023-04-12T08:18:59;100092.91;;;11.02;100.00
47670;BME280;33408;52.062;11.722;2023-04-12T08:21:25;100088.31;;;10.84;100.00
47670;BME280;33408;52.062;11.722;2023-04-12T08:23:54;100090.75;;;11.45;100.00
47670;BME280;33408;52.062;11.722;2023-04-12T08:26:21;100086.66;;;11.09;100.00
47670;BME280;33408;52.062;11.722;2023-04-12T08:28:47;100083.28;;;11.34;100.00
47670;BME280;33408;52.062;11.722;2023-04-12T08:31:14;100073.78;;;11.06;100.00
47670;BME280;33408;52.062;11.722;2023-04-12T08:33:41;100078.06;;;11.62;100.00
47670;BME280;33408;52.062;11.722;2023-04-12T08:36:09;100074.53;;;11.90;100.00
47670;BME280;33408;52.062;11.722;2023-04-12T08:38:36;100070.97;;;11.93;99.70
47670;BME280;33408;52.062;11.722;2023-04-12T08:41:03;100068.19;;;11.99;99.73
47670;BME280;33408;52.062;11.722;2023-04-12T08:43:31;100068.78;;;12.31;99.52
47670;BME280;33408;52.062;11.722;2023-04-12T08:45:59;100065.13;;;12.36;99.32
47670;BME280;33408;52.062;11.722;2023-04-12T08:48:26;100057.91;;;12.45;96.20
47670;BME280;33408;52.062;11.722;2023-04-12T08:50:55;100041.63;;;12.16;95.77
47670;BME280;33408;52.062;11.722;2023-04-12T08:53:23;100037.72;;;12.28;96.96
47670;BME280;33408;52.062;11.722;2023-04-12T08:55:50;100040.03;;;12.35;94.46
47670;BME280;33408;52.062;11.722;2023-04-12T08:58:17;100028.03;;;12.55;92.61
47670;BME280;33408;52.062;11.722;2023-04-12T09:00:45;100018.03;;;12.44;92.06
47670;BME280;33408;52.062;11.722;2023-04-12T09:03:12;100015.91;;;12.08;93.80
47670;BME280;33408;52.062;11.722;2023-04-12T09:05:39;100013.06;;;12.62;94.47
47670;BME280;33408;52.062;11.722;2023-04-12T09:08:06;100005.69;;;12.73;92.05
47670;BME280;33408;52.062;11.722;2023-04-12T09:10:35;99990.44;;;12.86;90.90
47670;BME280;33408;52.062;11.722;2023-04-12T09:13:02;99989.91;;;13.00;89.56
47670;BME280;33408;52.062;11.722;2023-04-12T09:15:29;99990.38;;;12.65;87.66
47670;BME280;33408;52.062;11.722;2023-04-12T09:18:03;99990.44;;;13.08;89.70
47670;BME280;33408;52.062;11.722;2023-04-12T09:20:31;99977.47;;;13.06;89.49
47670;BME280;33408;52.062;11.722;2023-04-12T09:22:57;99980.88;;;12.86;86.48
47670;BME280;33408;52.062;11.722;2023-04-12T09:25:37;99973.00;;;12.88;87.34
47670;BME280;33408;52.062;11.722;2023-04-12T09:28:20;99966.66;;;13.38;86.52
47670;BME280;33408;52.062;11.722;2023-04-12T09:30:47;99950.97;;;13.19;86.35
47670;BME280;33408;52.062;11.722;2023-04-12T09:33:18;99940.22;;;13.47;84.86
47670;BME280;33408;52.062;11.722;2023-04-12T09:35:44;99943.34;;;13.35;82.55
47670;BME280;33408;52.062;11.722;2023-04-12T09:38:11;99943.91;;;13.00;84.20
47670;BME280;33408;52.062;11.722;2023-04-12T09:40:39;99944.00;;;13.19;83.66
47670;BME280;33408;52.062;11.722;2023-04-12T09:43:06;99934.31;;;13.01;83.97
47670;BME280;33408;52.062;11.722;2023-04-12T09:45:34;99934.78;;;13.10;84.90
47670;BME280;33408;52.062;11.722;2023-04-12T09:48:03;99926.81;;;12.94;86.33
47670;BME280;33408;52.062;11.722;2023-04-12T09:50:30;99923.72;;;13.05;86.30
47670;BME280;33408;52.062;11.722;2023-04-12T09:52:59;99926.59;;;13.20;86.86
47670;BME280;33408;52.062;11.722;2023-04-12T09:55:27;99926.28;;;13.07;86.72
47670;BME280;33408;52.062;11.722;2023-04-12T09:57:55;99906.00;;;13.36;84.78
47670;BME280;33408;52.062;11.722;2023-04-12T10:00:23;99916.19;;;13.20;84.42
47670;BME280;33408;52.062;11.722;2023-04-12T10:02:53;99889.16;;;13.24;84.05
47670;BME280;33408;52.062;11.722;2023-04-12T10:05:22;99907.81;;;13.13;86.73
47670;BME280;33408;52.062;11.722;2023-04-12T10:07:50;99900.00;;;13.54;85.59
47670;BME280;33408;52.062;11.722;2023-04-12T10:10:18;99901.38;;;13.42;85.22
47670;BME280;33408;52.062;11.722;2023-04-12T10:12:46;99891.66;;;13.85;81.90
47670;BME280;33408;52.062;11.722;2023-04-12T10:15:15;99883.41;;;13.57;80.37
47670;BME280;33408;52.062;11.722;2023-04-12T10:17:43;99884.56;;;13.70;79.51
47670;BME280;33408;52.062;11.722;2023-04-12T10:20:11;99880.75;;;13.77;77.66
47670;BME280;33408;52.062;11.722;2023-04-12T10:22:40;99877.66;;;13.69;76.47
47670;BME280;33408;52.062;11.722;2023-04-12T10:25:12;99872.69;;;13.44;76.75
47670;BME280;33408;52.062;11.722;2023-04-12T10:27:40;99877.66;;;13.69;76.32
47670;BME280;33408;52.062;11.722;2023-04-12T10:30:23;99863.97;;;13.45;76.11
47670;BME280;33408;52.062;11.722;2023-04-12T10:33:14;99853.75;;;13.40;76.89
47670;BME280;33408;52.062;11.722;2023-04-12T10:35:52;99850.09;;;13.63;77.63
47670;BME280;33408;52.062;11.722;2023-04-12T10:38:20;99844.75;;;13.66;78.04
47670;BME280;33408;52.062;11.722;2023-04-12T10:41:13;99848.47;;;13.42;77.16
47670;BME280;33408;52.062;11.722;2023-04-12T10:43:41;99850.03;;;13.25;78.94
47670;BME280;33408;52.062;11.722;2023-04-12T10:49:10;99829.75;;;12.92;82.98
47670;BME280;33408;52.062;11.722;2023-04-12T10:51:38;99827.41;;;13.07;82.95
47670;BME280;33408;52.062;11.722;2023-04-12T10:54:32;99817.38;;;13.18;82.49
47670;BME280;33408;52.062;11.722;2023-04-12T10:57:00;99817.50;;;13.15;83.37
47670;BME280;33408;52.062;11.722;2023-04-12T10:59:49;99810.72;;;13.31;81.81
47670;BME280;33408;52.062;11.722;2023-04-12T11:02:16;99811.25;;;13.19;80.86
47670;BME280;33408;52.062;11.722;2023-04-12T11:05:05;99793.00;;;13.00;81.25
47670;BME280;33408;52.062;11.722;2023-04-12T11:07:41;99790.06;;;13.08;81.22
47670;BME280;33408;52.062;11.722;2023-04-12T11:10:12;99801.94;;;12.94;78.27
47670;BME280;33408;52.062;11.722;2023-04-12T11:12:40;99795.50;;;12.83;79.54
47670;BME280;33408;52.062;11.722;2023-04-12T11:15:11;99795.16;;;12.90;78.06
47670;BME280;33408;52.062;11.722;2023-04-12T11:17:37;99788.06;;;12.73;79.81
47670;BME280;33408;52.062;11.722;2023-04-12T11:20:10;99783.16;;;12.67;81.86
47670;BME280;33408;52.062;11.722;2023-04-12T11:22:37;99790.50;;;12.57;84.48
47670;BME280;33408;52.062;11.722;2023-04-12T11:25:05;99779.31;;;12.35;85.91
47670;BME280;33408;52.062;11.722;2023-04-12T11:27:31;99786.41;;;12.30;85.76
47670;BME280;33408;52.062;11.722;2023-04-12T11:29:59;99788.78;;;12.36;90.33
47670;BME280;33408;52.062;11.722;2023-04-12T11:32:27;99794.22;;;12.30;92.71
47670;BME280;33408;52.062;11.722;2023-04-12T11:34:56;99792.25;;;12.36;98.47
47670;BME280;33408;52.062;11.722;2023-04-12T11:37:24;99798.28;;;12.15;100.00
47670;BME280;33408;52.062;11.722;2023-04-12T11:39:54;99791.38;;;12.14;100.00
47670;BME280;33408;52.062;11.722;2023-04-12T11:42:23;99783.19;;;12.02;100.00
47670;BME280;33408;52.062;11.722;2023-04-12T11:44:51;99790.44;;;11.94;100.00
47670;BME280;33408;52.062;11.722;2023-04-12T11:47:19;99788.84;;;11.90;100.00
47670;BME280;33408;52.062;11.722;2023-04-12T11:49:47;99781.94;;;11.89;100.00
47670;BME280;33408;52.062;11.722;2023-04-12T11:52:14;99781.88;;;11.91;100.00
47670;BME280;33408;52.062;11.722;2023-04-12T11:54:44;99776.56;;;11.72;100.00
47670;BME280;33408;52.062;11.722;2023-04-12T11:57:12;99779.97;;;11.74;100.00
47670;BME280;33408;52.062;11.722;2023-04-12T11:59:42;99782.78;;;11.67;100.00
47670;BME280;33408;52.062;11.722;2023-04-12T12:02:09;99778.38;;;11.46;100.00
47670;BME280;33408;52.062;11.722;2023-04-12T12:04:36;99774.69;;;11.29;100.00
47670;BME280;33408;52.062;11.722;2023-04-12T12:07:03;99773.91;;;11.27;100.00
47670;BME280;33408;52.062;11.722;2023-04-12T12:09:30;99777.84;;;11.14;100.00
47670;BME280;33408;52.062;11.722;2023-04-12T12:12:01;99771.72;;;10.91;100.00
47670;BME280;33408;52.062;11.722;2023-04-12T12:14:27;99768.59;;;10.82;100.00
47670;BME280;33408;52.062;11.722;2023-04-12T12:16:56;99775.91;;;10.70;100.00
47670;BME280;33408;52.062;11.722;2023-04-12T12:19:29;99776.06;;;10.66;100.00
47670;BME280;33408;52.062;11.722;2023-04-12T12:22:13;99782.09;;;10.66;100.00
47670;BME280;33408;52.062;11.722;2023-04-12T12:24:49;99775.91;;;10.45;100.00
47670;BME280;33408;52.062;11.722;2023-04-12T12:27:22;99775.25;;;10.38;100.00
47670;BME280;33408;52.062;11.722;2023-04-12T12:29:52;99774.19;;;10.44;100.00
47670;BME280;33408;52.062;11.722;2023-04-12T12:32:20;99773.66;;;10.34;100.00
47670;BME280;33408;52.062;11.722;2023-04-12T12:34:55;99767.25;;;10.18;100.00
47670;BME280;33408;52.062;11.722;2023-04-12T12:37:25;99771.22;;;10.28;100.00
47670;BME280;33408;52.062;11.722;2023-04-12T12:39:59;99765.09;;;10.32;100.00
47670;BME280;33408;52.062;11.722;2023-04-12T12:42:27;99774.78;;;10.26;100.00
47670;BME280;33408;52.062;11.722;2023-04-12T12:44:54;99763.69;;;10.20;100.00
47670;BME280;33408;52.062;11.722;2023-04-12T12:47:20;99763.16;;;10.11;100.00
47670;BME280;33408;52.062;11.722;2023-04-12T12:49:49;99772.69;;;10.10;100.00